createdAt,value
2023-12-15T00:01:07.305Z,7.40
2023-12-15T00:03:34.312Z,7.20
2023-12-15T00:06:01.718Z,7.20
2023-12-15T00:08:28.650Z,7.10
2023-12-15T00:10:55.636Z,7.10
2023-12-15T00:13:22.614Z,7.00
2023-12-15T00:15:49.430Z,7.10
2023-12-15T00:18:17.773Z,7.10
2023-12-15T00:20:44.831Z,7.10
2023-12-15T00:23:11.784Z,7.10
2023-12-15T00:25:38.665Z,7.00
2023-12-15T00:28:05.696Z,7.00
2023-12-15T00:30:32.626Z,7.00
2023-12-15T00:32:59.550Z,7.00
2023-12-15T00:35:27.956Z,7.00
2023-12-15T00:37:54.953Z,7.00
2023-12-15T00:40:23.777Z,7.10
2023-12-15T00:42:50.648Z,7.00
2023-12-15T00:45:17.457Z,7.10
2023-12-15T00:47:44.725Z,7.10
2023-12-15T00:50:13.166Z,7.10
2023-12-15T00:52:41.476Z,7.10
2023-12-15T00:55:09.072Z,7.10
2023-12-15T00:57:36.082Z,7.10
2023-12-15T01:00:03.615Z,7.00
2023-12-15T01:02:30.641Z,7.10
2023-12-15T01:04:57.599Z,7.10
2023-12-15T01:07:24.618Z,7.10
2023-12-15T01:09:52.894Z,7.10
2023-12-15T01:12:19.788Z,7.10
2023-12-15T01:14:46.668Z,7.10
2023-12-15T01:17:13.577Z,7.10
2023-12-15T01:19:40.582Z,7.10
2023-12-15T01:22:07.476Z,7.10
2023-12-15T01:24:34.368Z,7.10
2023-12-15T01:27:02.567Z,7.10
2023-12-15T01:29:29.494Z,7.10
2023-12-15T01:31:56.396Z,7.10
2023-12-15T01:34:23.429Z,7.10
2023-12-15T01:36:50.321Z,7.20
2023-12-15T01:39:17.177Z,7.20
2023-12-15T01:41:44.096Z,7.20
2023-12-15T01:44:12.273Z,7.20
2023-12-15T01:46:39.147Z,7.20
2023-12-15T01:49:06.219Z,7.20
2023-12-15T01:51:33.211Z,7.20
2023-12-15T01:54:00.156Z,7.20
2023-12-15T01:56:27.192Z,7.20
2023-12-15T01:58:54.081Z,7.20
2023-12-15T02:01:22.340Z,7.20
2023-12-15T02:03:49.397Z,7.20
2023-12-15T02:06:16.360Z,7.20
2023-12-15T02:08:44.735Z,7.30
2023-12-15T02:11:11.706Z,7.30
2023-12-15T02:13:38.558Z,7.30
2023-12-15T02:16:06.272Z,7.30
2023-12-15T02:18:34.638Z,7.30
2023-12-15T02:21:01.624Z,7.30
2023-12-15T02:23:29.929Z,7.30
2023-12-15T02:25:57.024Z,7.30
2023-12-15T02:28:23.998Z,7.30
2023-12-15T02:30:50.866Z,7.40
2023-12-15T02:33:18.056Z,7.30
2023-12-15T02:35:48.996Z,7.30
2023-12-15T02:38:19.400Z,7.30
2023-12-15T02:40:47.822Z,7.30
2023-12-15T02:43:14.956Z,7.30
2023-12-15T02:45:41.852Z,7.30
2023-12-15T02:48:08.804Z,7.30
2023-12-15T02:50:35.740Z,7.20
2023-12-15T02:53:03.390Z,7.30
2023-12-15T02:55:30.407Z,7.30
2023-12-15T02:57:58.663Z,7.20
2023-12-15T03:00:25.536Z,7.20
2023-12-15T03:02:52.333Z,7.10
2023-12-15T03:05:19.285Z,7.00
2023-12-15T03:07:46.223Z,6.90
2023-12-15T03:10:13.247Z,6.90
2023-12-15T03:12:40.350Z,6.90
2023-12-15T03:15:09.442Z,6.90
2023-12-15T03:17:36.594Z,6.90
2023-12-15T03:20:05.053Z,6.80
2023-12-15T03:22:31.940Z,6.90
2023-12-15T03:24:58.874Z,6.80
2023-12-15T03:27:25.844Z,6.90
2023-12-15T03:29:52.900Z,7.00
2023-12-15T03:32:21.243Z,7.00
2023-12-15T03:34:48.320Z,6.90
2023-12-15T03:37:15.165Z,6.80
2023-12-15T03:39:42.113Z,6.60
2023-12-15T03:42:08.924Z,6.70
2023-12-15T03:44:37.848Z,6.70
2023-12-15T03:47:05.088Z,6.70
2023-12-15T03:49:33.479Z,6.70
2023-12-15T03:52:00.286Z,6.70
2023-12-15T03:54:27.169Z,6.70
2023-12-15T03:56:57.500Z,6.70
2023-12-15T03:59:24.745Z,6.80
2023-12-15T04:01:52.045Z,6.80
2023-12-15T04:04:19.561Z,6.80
2023-12-15T04:06:47.798Z,6.90
2023-12-15T04:09:14.700Z,6.90
2023-12-15T04:11:41.619Z,7.00
2023-12-15T04:14:10.215Z,6.90
2023-12-15T04:16:37.203Z,6.90
2023-12-15T04:19:04.242Z,6.90
2023-12-15T04:21:32.202Z,6.90
2023-12-15T04:24:01.217Z,6.90
2023-12-15T04:26:28.232Z,6.90
2023-12-15T04:28:55.175Z,6.80
2023-12-15T04:31:22.082Z,6.80
2023-12-15T04:33:48.965Z,6.70
2023-12-15T04:36:19.045Z,6.70
2023-12-15T04:38:45.894Z,6.60
2023-12-15T04:41:19.714Z,6.60
2023-12-15T04:43:46.792Z,6.70
2023-12-15T04:46:22.141Z,6.60
2023-12-15T04:48:49.045Z,6.40
2023-12-15T04:51:15.929Z,6.60
2023-12-15T04:53:42.931Z,6.60
2023-12-15T04:56:10.351Z,6.70
2023-12-15T04:58:38.978Z,6.70
2023-12-15T05:01:06.357Z,6.70
2023-12-15T05:03:33.284Z,6.70
2023-12-15T05:06:00.953Z,6.70
2023-12-15T05:08:27.915Z,6.70
2023-12-15T05:10:54.789Z,6.70
2023-12-15T05:13:21.727Z,6.70
2023-12-15T05:15:49.988Z,6.70
2023-12-15T05:18:18.822Z,6.70
2023-12-15T05:20:45.798Z,6.60
2023-12-15T05:23:15.166Z,6.60
2023-12-15T05:25:42.051Z,6.50
2023-12-15T05:28:08.955Z,6.50
2023-12-15T05:30:35.933Z,6.50
2023-12-15T05:33:04.438Z,6.40
2023-12-15T05:35:31.428Z,6.40
2023-12-15T05:37:58.417Z,6.40
2023-12-15T05:40:25.405Z,6.40
2023-12-15T05:42:52.256Z,6.40
2023-12-15T05:45:19.165Z,6.40
2023-12-15T05:47:46.289Z,6.40
2023-12-15T05:50:15.010Z,6.40
2023-12-15T05:52:41.970Z,6.40
2023-12-15T05:55:09.476Z,6.40
2023-12-15T05:57:36.542Z,6.50
2023-12-15T06:00:04.367Z,6.50
2023-12-15T06:02:31.230Z,6.50
2023-12-15T06:05:00.042Z,6.40
2023-12-15T06:07:28.923Z,6.40
2023-12-15T06:09:55.876Z,6.40
2023-12-15T06:12:22.725Z,6.40
2023-12-15T06:14:49.663Z,6.40
2023-12-15T06:17:16.670Z,6.40
2023-12-15T06:19:43.596Z,6.50
2023-12-15T06:22:10.504Z,6.50
2023-12-15T06:24:38.753Z,6.40
2023-12-15T06:27:06.028Z,6.50
2023-12-15T06:29:33.021Z,6.50
2023-12-15T06:32:00.019Z,6.50
2023-12-15T06:34:26.928Z,6.50
2023-12-15T06:36:53.903Z,6.50
2023-12-15T06:39:20.942Z,6.50
2023-12-15T06:41:49.153Z,6.50
2023-12-15T06:44:16.103Z,6.40
2023-12-15T06:46:43.167Z,6.40
2023-12-15T06:49:10.191Z,6.40
2023-12-15T06:51:37.182Z,6.40
2023-12-15T06:54:04.167Z,6.40
2023-12-15T06:56:31.309Z,6.40
2023-12-15T06:58:59.616Z,6.40
2023-12-15T07:01:26.490Z,6.40
2023-12-15T07:03:53.515Z,6.40
2023-12-15T07:06:20.506Z,6.40
2023-12-15T07:08:55.022Z,6.40
2023-12-15T07:11:22.001Z,6.40
2023-12-15T07:13:48.948Z,6.40
2023-12-15T07:16:17.228Z,6.40
2023-12-15T07:18:44.548Z,6.40
2023-12-15T07:21:11.475Z,6.30
2023-12-15T07:23:38.961Z,6.30
2023-12-15T07:26:06.707Z,6.30
2023-12-15T07:28:34.528Z,6.30
2023-12-15T07:31:01.500Z,6.30
2023-12-15T07:33:29.837Z,6.30
2023-12-15T07:35:56.809Z,6.30
2023-12-15T07:38:23.785Z,6.40
2023-12-15T07:40:55.277Z,6.40
2023-12-15T07:43:22.396Z,6.40
2023-12-15T07:45:49.347Z,6.40
2023-12-15T07:48:16.473Z,6.40
2023-12-15T07:50:45.135Z,6.50
2023-12-15T07:53:12.698Z,6.50
2023-12-15T07:55:39.642Z,6.60
2023-12-15T07:58:09.817Z,6.50
2023-12-15T08:00:36.784Z,6.50
2023-12-15T08:03:05.116Z,6.50
2023-12-15T08:05:33.354Z,6.60
2023-12-15T08:08:01.963Z,6.50
2023-12-15T08:10:30.890Z,6.60
2023-12-15T08:12:57.739Z,6.60
2023-12-15T08:15:24.666Z,6.60
2023-12-15T08:17:51.573Z,6.70
2023-12-15T08:20:18.742Z,6.70
2023-12-15T08:22:45.703Z,6.70
2023-12-15T08:25:13.957Z,6.70
2023-12-15T08:27:42.748Z,6.70
2023-12-15T08:30:10.551Z,6.80
2023-12-15T08:32:37.634Z,6.90
2023-12-15T08:35:05.561Z,6.80
2023-12-15T08:37:32.602Z,6.80
2023-12-15T08:39:59.654Z,6.70
2023-12-15T08:42:27.877Z,6.70
2023-12-15T08:44:54.766Z,6.70
2023-12-15T08:47:21.693Z,6.70
2023-12-15T08:49:49.193Z,6.70
2023-12-15T08:52:16.166Z,6.70
2023-12-15T08:54:43.064Z,6.70
2023-12-15T08:57:10.379Z,6.70
2023-12-15T08:59:39.743Z,6.70
2023-12-15T09:02:07.584Z,6.70
2023-12-15T09:04:36.792Z,6.70
2023-12-15T09:07:08.808Z,6.70
2023-12-15T09:09:35.905Z,6.70
2023-12-15T09:12:03.292Z,6.70
2023-12-15T09:14:31.629Z,6.80
2023-12-15T09:17:02.000Z,6.80
2023-12-15T09:19:29.089Z,6.90
2023-12-15T09:21:56.061Z,6.90
2023-12-15T09:24:23.156Z,6.90
2023-12-15T09:26:50.133Z,6.90
2023-12-15T09:29:20.111Z,7.00
2023-12-15T09:31:47.158Z,7.00
2023-12-15T09:34:15.548Z,7.00
2023-12-15T09:36:42.519Z,7.00
2023-12-15T09:39:10.011Z,7.00
2023-12-15T09:41:37.062Z,7.10
2023-12-15T09:44:04.324Z,7.10
2023-12-15T09:46:32.243Z,7.00
2023-12-15T09:48:59.800Z,7.00
2023-12-15T09:51:30.970Z,7.00
2023-12-15T09:53:57.891Z,7.00
2023-12-15T09:56:24.933Z,7.00
2023-12-15T09:58:52.224Z,7.00
2023-12-15T10:01:20.201Z,7.00
2023-12-15T10:03:48.013Z,7.10
2023-12-15T10:06:15.116Z,7.00
2023-12-15T10:08:58.437Z,7.00
2023-12-15T10:11:33.429Z,7.00
2023-12-15T10:14:05.794Z,6.90
2023-12-15T10:16:33.015Z,6.90
2023-12-15T10:19:02.578Z,6.80
2023-12-15T10:21:31.274Z,6.80
2023-12-15T10:23:59.522Z,6.80
2023-12-15T10:26:28.291Z,6.80
2023-12-15T10:28:57.408Z,6.80
2023-12-15T10:31:27.453Z,6.80
2023-12-15T10:33:54.985Z,6.80
2023-12-15T10:36:22.203Z,6.80
2023-12-15T10:38:49.470Z,6.80
2023-12-15T10:41:18.844Z,6.90
2023-12-15T10:43:46.909Z,6.90
2023-12-15T10:46:14.454Z,6.90
2023-12-15T10:48:42.245Z,7.00
2023-12-15T10:51:09.838Z,7.00
2023-12-15T10:53:40.259Z,7.00
2023-12-15T10:56:08.458Z,7.10
2023-12-15T10:58:36.873Z,7.10
2023-12-15T11:01:10.385Z,7.10
2023-12-15T11:03:39.037Z,7.10
2023-12-15T11:06:06.717Z,7.10
2023-12-15T11:08:33.745Z,7.10
2023-12-15T11:11:01.308Z,7.20
2023-12-15T11:13:59.726Z,7.20
2023-12-15T11:16:29.682Z,7.30
2023-12-15T11:18:57.684Z,7.40
2023-12-15T11:21:24.772Z,7.40
2023-12-15T11:23:56.320Z,7.40
2023-12-15T11:26:29.488Z,7.40
2023-12-15T11:29:08.001Z,7.40
2023-12-15T11:31:35.940Z,7.40
2023-12-15T11:34:04.354Z,7.50
2023-12-15T11:36:39.100Z,7.50
2023-12-15T11:39:06.015Z,7.60
2023-12-15T11:41:35.197Z,7.60
2023-12-15T11:44:02.265Z,7.50
2023-12-15T11:46:31.078Z,7.50
2023-12-15T11:48:58.014Z,7.50
2023-12-15T11:51:32.077Z,7.50
2023-12-15T11:54:02.052Z,7.50
2023-12-15T11:56:29.213Z,7.50
2023-12-15T11:58:56.188Z,7.50
2023-12-15T12:01:23.380Z,7.50
2023-12-15T12:03:52.056Z,7.50
2023-12-15T12:06:22.328Z,7.50
2023-12-15T12:08:49.738Z,7.40
2023-12-15T12:11:17.675Z,7.40
2023-12-15T12:13:47.378Z,7.50
2023-12-15T12:16:17.522Z,7.50
2023-12-15T12:18:47.098Z,7.50
2023-12-15T12:21:17.008Z,7.50
2023-12-15T12:23:45.967Z,7.50
2023-12-15T12:26:15.095Z,7.50
2023-12-15T12:28:50.669Z,7.60
2023-12-15T12:31:18.440Z,7.60
2023-12-15T12:33:46.043Z,7.60
2023-12-15T12:36:15.779Z,7.70
2023-12-15T12:38:44.915Z,7.70
2023-12-15T12:41:13.567Z,7.80
2023-12-15T12:43:42.021Z,7.90
2023-12-15T12:46:10.888Z,7.90
2023-12-15T12:48:39.162Z,7.90
2023-12-15T12:51:06.738Z,7.90
2023-12-15T12:53:33.780Z,8.00
2023-12-15T12:56:02.126Z,8.00
2023-12-15T12:58:29.691Z,8.10
2023-12-15T13:00:56.659Z,8.10
2023-12-15T13:03:23.791Z,8.10
2023-12-15T13:05:51.163Z,8.10
2023-12-15T13:08:18.205Z,8.10
2023-12-15T13:10:45.167Z,8.20
2023-12-15T13:13:14.320Z,8.20
2023-12-15T13:15:41.674Z,8.20
2023-12-15T13:18:11.232Z,8.20
2023-12-15T13:20:40.015Z,8.30
2023-12-15T13:23:10.083Z,8.30
2023-12-15T13:25:37.378Z,8.30
2023-12-15T13:28:05.862Z,8.30
2023-12-15T13:30:34.451Z,8.30
2023-12-15T13:33:01.642Z,8.30
2023-12-15T13:35:28.713Z,8.30
2023-12-15T13:37:55.913Z,8.30
2023-12-15T13:40:23.192Z,8.40
2023-12-15T13:42:50.093Z,8.30
2023-12-15T13:45:19.141Z,8.30
2023-12-15T13:47:47.439Z,8.30
2023-12-15T13:50:16.342Z,8.30
2023-12-15T13:52:43.487Z,8.30
2023-12-15T13:55:10.645Z,8.30
2023-12-15T13:57:37.600Z,8.30
2023-12-15T14:00:05.586Z,8.40
2023-12-15T14:02:32.669Z,8.40
2023-12-15T14:05:02.800Z,8.40
2023-12-15T14:07:30.697Z,8.50
2023-12-15T14:09:57.724Z,8.60
2023-12-15T14:12:24.654Z,8.60
2023-12-15T14:14:52.370Z,8.60
2023-12-15T14:17:20.763Z,8.60
2023-12-15T14:19:48.143Z,8.60
2023-12-15T14:22:17.270Z,8.60
2023-12-15T14:24:46.022Z,8.60
2023-12-15T14:27:13.046Z,8.60
2023-12-15T14:29:40.114Z,8.50
2023-12-15T14:32:07.741Z,8.50
2023-12-15T14:34:34.685Z,8.50
2023-12-15T14:37:01.756Z,8.50
2023-12-15T14:39:29.974Z,8.50
2023-12-15T14:41:56.995Z,8.50
2023-12-15T14:44:24.024Z,8.50
2023-12-15T14:46:51.038Z,8.50
2023-12-15T14:49:18.030Z,8.40
2023-12-15T14:51:45.098Z,8.40
2023-12-15T14:54:11.998Z,8.50
2023-12-15T14:56:40.218Z,8.40
2023-12-15T14:59:07.228Z,8.40
2023-12-15T15:01:34.259Z,8.40
2023-12-15T15:04:01.221Z,8.50
2023-12-15T15:06:33.016Z,8.50
2023-12-15T15:09:06.590Z,8.50
2023-12-15T15:11:33.568Z,8.50
2023-12-15T15:14:01.937Z,8.50
2023-12-15T15:16:28.965Z,8.60
2023-12-15T15:18:55.833Z,8.60
2023-12-15T15:21:22.794Z,8.70
2023-12-15T15:23:49.970Z,8.70
2023-12-15T15:26:16.894Z,8.70
2023-12-15T15:28:43.807Z,8.80
2023-12-15T15:31:17.524Z,8.70
2023-12-15T15:33:44.450Z,8.70
2023-12-15T15:36:11.760Z,8.60
2023-12-15T15:38:38.670Z,8.60
2023-12-15T15:41:07.149Z,8.50
2023-12-15T15:43:34.082Z,8.50
2023-12-15T15:46:04.412Z,8.50
2023-12-15T15:48:32.924Z,8.40
2023-12-15T15:51:00.002Z,8.40
2023-12-15T15:53:26.902Z,8.40
2023-12-15T15:55:53.790Z,8.50
2023-12-15T15:58:21.178Z,8.50
2023-12-15T16:00:48.240Z,8.50
2023-12-15T16:03:15.263Z,8.60
2023-12-15T16:05:43.670Z,8.60
2023-12-15T16:08:10.647Z,8.60
2023-12-15T16:10:44.764Z,8.60
2023-12-15T16:13:12.951Z,8.60
2023-12-15T16:15:40.093Z,8.60
2023-12-15T16:18:07.641Z,8.60
2023-12-15T16:20:34.814Z,8.60
2023-12-15T16:23:03.007Z,8.60
2023-12-15T16:25:29.883Z,8.60
2023-12-15T16:27:56.799Z,8.60
2023-12-15T16:30:23.875Z,8.50
2023-12-15T16:32:51.005Z,8.60
2023-12-15T16:35:17.995Z,8.60
2023-12-15T16:37:44.877Z,8.60
2023-12-15T16:40:14.601Z,8.60
2023-12-15T16:42:45.528Z,8.60
2023-12-15T16:45:13.232Z,8.60
2023-12-15T16:47:42.551Z,8.50
2023-12-15T16:50:10.697Z,8.50
2023-12-15T16:52:38.082Z,8.40
2023-12-15T16:55:05.634Z,8.40
2023-12-15T16:57:34.041Z,8.30
2023-12-15T17:00:00.956Z,8.30
2023-12-15T17:02:27.889Z,8.30
2023-12-15T17:04:56.881Z,8.30
2023-12-15T17:07:26.466Z,8.20
2023-12-15T17:09:53.527Z,8.30
2023-12-15T17:12:20.522Z,8.40
2023-12-15T17:14:48.790Z,8.40
2023-12-15T17:17:15.680Z,8.50
2023-12-15T17:19:42.821Z,8.60
2023-12-15T17:22:10.080Z,8.60
2023-12-15T17:24:38.528Z,8.60
2023-12-15T17:27:05.720Z,8.60
2023-12-15T17:29:39.476Z,8.60
2023-12-15T17:32:16.747Z,8.60
2023-12-15T17:34:43.662Z,8.60
2023-12-15T17:37:10.592Z,8.60
2023-12-15T17:39:37.869Z,8.60
2023-12-15T17:42:04.919Z,8.70
2023-12-15T17:44:31.777Z,8.60
2023-12-15T17:46:58.623Z,8.60
2023-12-15T17:49:27.075Z,8.70
2023-12-15T17:51:54.070Z,8.70
2023-12-15T17:54:21.195Z,8.80
2023-12-15T17:56:48.854Z,8.80
2023-12-15T17:59:15.774Z,8.80
2023-12-15T18:01:43.263Z,8.90
2023-12-15T18:04:10.383Z,8.90
2023-12-15T18:06:38.743Z,8.80
2023-12-15T18:09:05.782Z,8.80
2023-12-15T18:11:32.704Z,8.70
2023-12-15T18:13:59.716Z,8.70
2023-12-15T18:16:27.377Z,8.60
2023-12-15T18:18:56.082Z,8.60
2023-12-15T18:21:23.189Z,8.60
2023-12-15T18:23:51.629Z,8.50
2023-12-15T18:26:19.193Z,8.50
2023-12-15T18:28:46.300Z,8.50
2023-12-15T18:31:13.995Z,8.50
2023-12-15T18:33:41.434Z,8.40
2023-12-15T18:36:09.288Z,8.40
2023-12-15T18:38:37.956Z,8.40
2023-12-15T18:41:06.399Z,8.30
2023-12-15T18:43:33.275Z,8.30
2023-12-15T18:46:00.542Z,8.30
2023-12-15T18:48:27.641Z,8.40
2023-12-15T18:50:56.598Z,8.40
2023-12-15T18:53:23.571Z,8.40
2023-12-15T18:55:50.439Z,8.40
2023-12-15T18:58:18.799Z,8.40
2023-12-15T19:00:45.896Z,8.40
2023-12-15T19:03:12.900Z,8.40
2023-12-15T19:05:39.969Z,8.40
2023-12-15T19:08:07.116Z,8.50
2023-12-15T19:10:34.088Z,8.50
2023-12-15T19:13:00.945Z,8.50
2023-12-15T19:15:29.190Z,8.40
2023-12-15T19:17:57.516Z,8.40
2023-12-15T19:20:29.759Z,8.40
2023-12-15T19:22:57.185Z,8.40
2023-12-15T19:25:24.062Z,8.40
2023-12-15T19:27:51.153Z,8.30
2023-12-15T19:30:18.239Z,8.30
2023-12-15T19:32:46.777Z,8.30
2023-12-15T19:35:14.850Z,8.30
2023-12-15T19:37:41.888Z,8.30
2023-12-15T19:40:10.443Z,8.20
2023-12-15T19:42:37.587Z,8.20
2023-12-15T19:45:05.199Z,8.20
2023-12-15T19:47:32.333Z,8.20
2023-12-15T19:50:00.838Z,8.20
2023-12-15T19:52:29.232Z,8.20
2023-12-15T19:54:56.208Z,8.10
2023-12-15T19:57:23.544Z,8.10
2023-12-15T19:59:50.496Z,8.10
2023-12-15T20:02:17.376Z,8.10
2023-12-15T20:04:45.241Z,8.10
2023-12-15T20:07:13.822Z,8.00
2023-12-15T20:09:40.802Z,8.00
2023-12-15T20:12:08.237Z,8.00
2023-12-15T20:14:35.219Z,8.00
2023-12-15T20:17:02.184Z,8.00
2023-12-15T20:19:29.367Z,8.10
2023-12-15T20:21:57.339Z,8.10
2023-12-15T20:24:25.604Z,8.10
2023-12-15T20:26:52.534Z,8.10
2023-12-15T20:29:19.406Z,8.10
2023-12-15T20:31:46.522Z,8.20
2023-12-15T20:34:14.125Z,8.20
2023-12-15T20:36:41.158Z,8.20
2023-12-15T20:39:08.168Z,8.20
2023-12-15T20:41:36.521Z,8.30
2023-12-15T20:44:11.587Z,8.30
2023-12-15T20:46:41.373Z,8.30
2023-12-15T20:49:08.679Z,8.40
2023-12-15T20:51:35.715Z,8.50
2023-12-15T20:54:02.650Z,8.40
2023-12-15T20:56:31.763Z,8.40
2023-12-15T20:59:00.369Z,8.40
2023-12-15T21:01:27.439Z,8.40
2023-12-15T21:03:54.939Z,8.40
2023-12-15T21:06:23.414Z,8.30
2023-12-15T21:08:52.852Z,8.30
2023-12-15T21:11:19.815Z,8.30
2023-12-15T21:13:46.736Z,8.30
2023-12-15T21:16:24.162Z,8.30
2023-12-15T21:18:51.294Z,8.30
2023-12-15T21:21:26.440Z,8.30
2023-12-15T21:23:53.391Z,8.30
2023-12-15T21:26:20.340Z,8.30
2023-12-15T21:28:47.302Z,8.30
2023-12-15T21:31:15.579Z,8.20
2023-12-15T21:33:42.627Z,8.30
2023-12-15T21:36:11.002Z,8.30
2023-12-15T21:38:38.980Z,8.20
2023-12-15T21:41:06.219Z,8.20
2023-12-15T21:43:33.277Z,8.20
2023-12-15T21:46:00.458Z,8.20
2023-12-15T21:48:28.839Z,8.20
2023-12-15T21:50:55.805Z,8.20
2023-12-15T21:53:22.811Z,8.20
2023-12-15T21:55:49.747Z,8.20
2023-12-15T21:58:17.741Z,8.20
2023-12-15T22:00:44.983Z,8.20
2023-12-15T22:03:12.132Z,8.20
2023-12-15T22:05:40.467Z,8.20
2023-12-15T22:08:07.577Z,8.10
2023-12-15T22:10:34.497Z,8.10
2023-12-15T22:13:01.459Z,8.10
2023-12-15T22:15:28.456Z,8.10
2023-12-15T22:17:55.542Z,8.10
2023-12-15T22:20:22.735Z,8.10
2023-12-15T22:22:51.048Z,8.10
2023-12-15T22:25:18.028Z,8.10
2023-12-15T22:27:44.923Z,8.10
2023-12-15T22:30:13.415Z,8.00
2023-12-15T22:32:40.608Z,8.10
2023-12-15T22:35:08.497Z,8.10
2023-12-15T22:37:36.647Z,8.10
2023-12-15T22:40:06.406Z,8.10
2023-12-15T22:42:33.313Z,8.10
2023-12-15T22:45:00.314Z,8.10
2023-12-15T22:47:27.256Z,8.10
2023-12-15T22:49:54.321Z,8.10
2023-12-15T22:52:21.331Z,8.10
2023-12-15T22:54:49.222Z,8.10
2023-12-15T22:57:17.541Z,8.10
2023-12-15T22:59:46.657Z,8.10
2023-12-15T23:02:14.411Z,8.00
2023-12-15T23:04:41.510Z,8.00
2023-12-15T23:07:09.397Z,8.00
2023-12-15T23:09:36.524Z,8.00
2023-12-15T23:12:03.557Z,7.90
2023-12-15T23:14:31.819Z,7.90
2023-12-15T23:16:58.696Z,7.90
2023-12-15T23:19:27.083Z,7.90
2023-12-15T23:21:54.172Z,7.90
2023-12-15T23:24:21.111Z,7.80
2023-12-15T23:26:49.629Z,7.80
2023-12-15T23:29:16.948Z,7.80
2023-12-15T23:31:45.276Z,7.80
2023-12-15T23:34:12.376Z,7.80
2023-12-15T23:36:39.445Z,7.80
2023-12-15T23:39:06.899Z,7.80
2023-12-15T23:41:33.870Z,7.80
2023-12-15T23:44:00.766Z,7.70
2023-12-15T23:46:27.722Z,7.70
2023-12-15T23:48:56.140Z,7.70
2023-12-15T23:51:23.087Z,7.70
2023-12-15T23:53:49.958Z,7.60
2023-12-15T23:56:16.918Z,7.60
2023-12-15T23:58:44.080Z,7.60
